sensor_id;sensor_type;location;lat;lon;timestamp;pressure;altitude;pressure_sealevel;temperature;humidity
48790;BME280;41718;51.980;5.734;2022-08-01T00:04:57;101497.91;;;18.13;100.00
48790;BME280;41718;51.980;5.734;2022-08-01T00:09:59;101499.66;;;18.13;100.00
48790;BME280;41718;51.980;5.734;2022-08-01T00:15:02;101494.41;;;18.14;100.00
48790;BME280;41718;51.980;5.734;2022-08-01T00:20:06;101497.94;;;18.10;100.00
48790;BME280;41718;51.980;5.734;2022-08-01T00:25:08;101511.91;;;18.06;100.00
48790;BME280;41718;51.980;5.734;2022-08-01T00:30:10;101509.31;;;18.05;100.00
48790;BME280;41718;51.980;5.734;2022-08-01T00:35:15;101502.34;;;17.96;100.00
48790;BME280;41718;51.980;5.734;2022-08-01T00:40:17;101511.97;;;17.95;100.00
48790;BME280;41718;51.980;5.734;2022-08-01T00:45:19;101505.84;;;17.92;100.00
48790;BME280;41718;51.980;5.734;2022-08-01T00:50:21;101510.25;;;17.90;100.00
48790;BME280;41718;51.980;5.734;2022-08-01T00:55:26;101503.25;;;17.90;100.00
48790;BME280;41718;51.980;5.734;2022-08-01T01:00:28;101505.00;;;17.91;100.00
48790;BME280;41718;51.980;5.734;2022-08-01T01:05:41;101503.28;;;17.84;100.00
48790;BME280;41718;51.980;5.734;2022-08-01T01:10:58;101503.28;;;17.86;100.00
48790;BME280;41718;51.980;5.734;2022-08-01T01:16:10;101509.38;;;17.85;100.00
48790;BME280;41718;51.980;5.734;2022-08-01T01:26:43;101503.31;;;17.75;100.00
48790;BME280;41718;51.980;5.734;2022-08-01T01:31:57;101511.19;;;17.70;100.00
48790;BME280;41718;51.980;5.734;2022-08-01T01:37:01;101511.19;;;17.72;100.00
48790;BME280;41718;51.980;5.734;2022-08-01T01:42:05;101513.78;;;17.69;100.00
48790;BME280;41718;51.980;5.734;2022-08-01T01:47:07;101507.69;;;17.70;100.00
48790;BME280;41718;51.980;5.734;2022-08-01T01:52:12;101511.22;;;17.64;100.00
48790;BME280;41718;51.980;5.734;2022-08-01T01:57:15;101507.69;;;17.62;100.00
48790;BME280;41718;51.980;5.734;2022-08-01T02:02:18;101510.31;;;17.67;100.00
48790;BME280;41718;51.980;5.734;2022-08-01T02:07:22;101511.22;;;17.64;100.00
48790;BME280;41718;51.980;5.734;2022-08-01T02:12:25;101519.91;;;17.63;100.00
48790;BME280;41718;51.980;5.734;2022-08-01T02:17:29;101505.94;;;17.63;100.00
48790;BME280;41718;51.980;5.734;2022-08-01T02:22:42;101511.25;;;17.54;100.00
48790;BME280;41718;51.980;5.734;2022-08-01T02:27:50;101502.50;;;17.50;100.00
48790;BME280;41718;51.980;5.734;2022-08-01T02:33:08;101503.41;;;17.47;100.00
48790;BME280;41718;51.980;5.734;2022-08-01T02:38:17;101501.69;;;17.39;100.00
48790;BME280;41718;51.980;5.734;2022-08-01T02:43:23;101513.88;;;17.44;100.00
48790;BME280;41718;51.980;5.734;2022-08-01T02:48:26;101519.13;;;17.38;100.00
48790;BME280;41718;51.980;5.734;2022-08-01T02:53:32;101520.88;;;17.32;100.00
48790;BME280;41718;51.980;5.734;2022-08-01T02:58:45;101510.38;;;17.39;100.00
48790;BME280;41718;51.980;5.734;2022-08-01T03:03:47;101507.81;;;17.36;100.00
48790;BME280;41718;51.980;5.734;2022-08-01T03:08:50;101509.53;;;17.33;100.00
48790;BME280;41718;51.980;5.734;2022-08-01T03:13:53;101509.53;;;17.34;100.00
48790;BME280;41718;51.980;5.734;2022-08-01T03:18:58;101520.88;;;17.38;100.00
48790;BME280;41718;51.980;5.734;2022-08-01T03:24:03;101504.28;;;17.40;100.00
48790;BME280;41718;51.980;5.734;2022-08-01T03:29:08;101499.94;;;17.38;100.00
48790;BME280;41718;51.980;5.734;2022-08-01T03:34:12;101497.31;;;17.38;100.00
48790;BME280;41718;51.980;5.734;2022-08-01T03:39:16;101501.69;;;17.39;100.00
48790;BME280;41718;51.980;5.734;2022-08-01T03:44:24;101512.16;;;17.33;100.00
48790;BME280;41718;51.980;5.734;2022-08-01T03:49:30;101506.06;;;17.29;100.00
48790;BME280;41718;51.980;5.734;2022-08-01T03:54:36;101509.53;;;17.23;100.00
48790;BME280;41718;51.980;5.734;2022-08-01T03:59:39;101506.06;;;17.12;100.00
48790;BME280;41718;51.980;5.734;2022-08-01T04:04:41;101506.09;;;17.09;100.00
48790;BME280;41718;51.980;5.734;2022-08-01T04:09:43;101503.47;;;17.09;100.00
48790;BME280;41718;51.980;5.734;2022-08-01T04:14:45;101517.41;;;17.13;100.00
48790;BME280;41718;51.980;5.734;2022-08-01T04:19:47;101513.94;;;17.20;100.00
48790;BME280;41718;51.980;5.734;2022-08-01T04:24:51;101517.41;;;17.17;100.00
48790;BME280;41718;51.980;5.734;2022-08-01T04:29:58;101521.78;;;17.15;100.00
48790;BME280;41718;51.980;5.734;2022-08-01T04:35:03;101515.69;;;17.13;100.00
48790;BME280;41718;51.980;5.734;2022-08-01T04:40:24;101531.34;;;17.18;100.00
48790;BME280;41718;51.980;5.734;2022-08-01T04:45:27;101538.31;;;17.23;100.00
48790;BME280;41718;51.980;5.734;2022-08-01T04:50:29;101539.19;;;17.22;100.00
48790;BME280;41718;51.980;5.734;2022-08-01T04:55:33;101543.53;;;17.34;100.00
48790;BME280;41718;51.980;5.734;2022-08-01T05:00:36;101546.16;;;17.37;100.00
48790;BME280;41718;51.980;5.734;2022-08-01T05:05:38;101556.63;;;17.42;100.00
48790;BME280;41718;51.980;5.734;2022-08-01T05:10:40;101556.59;;;17.40;100.00
48790;BME280;41718;51.980;5.734;2022-08-01T05:15:41;101554.88;;;17.42;100.00
48790;BME280;41718;51.980;5.734;2022-08-01T05:20:43;101552.25;;;17.48;100.00
48790;BME280;41718;51.980;5.734;2022-08-01T05:25:45;101562.69;;;17.50;100.00
48790;BME280;41718;51.980;5.734;2022-08-01T05:30:57;101567.94;;;17.48;100.00
48790;BME280;41718;51.980;5.734;2022-08-01T05:35:59;101568.81;;;17.49;100.00
48790;BME280;41718;51.980;5.734;2022-08-01T05:41:01;101574.88;;;17.57;100.00
48790;BME280;41718;51.980;5.734;2022-08-01T05:46:02;101576.63;;;17.72;100.00
48790;BME280;41718;51.980;5.734;2022-08-01T05:51:04;101580.97;;;17.68;100.00
48790;BME280;41718;51.980;5.734;2022-08-01T05:56:06;101573.09;;;17.68;100.00
48790;BME280;41718;51.980;5.734;2022-08-01T06:01:08;101587.13;;;17.49;100.00
48790;BME280;41718;51.980;5.734;2022-08-01T06:06:09;101589.75;;;17.44;100.00
48790;BME280;41718;51.980;5.734;2022-08-01T06:11:11;101601.09;;;17.43;100.00
48790;BME280;41718;51.980;5.734;2022-08-01T06:16:13;101597.59;;;17.38;100.00
48790;BME280;41718;51.980;5.734;2022-08-01T06:21:15;101602.84;;;17.37;100.00
48790;BME280;41718;51.980;5.734;2022-08-01T06:26:18;101602.81;;;17.38;100.00
48790;BME280;41718;51.980;5.734;2022-08-01T06:31:20;101606.28;;;17.56;100.00
48790;BME280;41718;51.980;5.734;2022-08-01T06:36:21;101611.53;;;17.46;100.00
48790;BME280;41718;51.980;5.734;2022-08-01T06:41:23;101618.50;;;17.61;100.00
48790;BME280;41718;51.980;5.734;2022-08-01T06:46:25;101619.38;;;17.59;100.00
48790;BME280;41718;51.980;5.734;2022-08-01T06:51:32;101626.34;;;17.73;100.00
48790;BME280;41718;51.980;5.734;2022-08-01T06:56:34;101631.56;;;17.84;100.00
48790;BME280;41718;51.980;5.734;2022-08-01T07:01:36;101627.22;;;17.82;100.00
48790;BME280;41718;51.980;5.734;2022-08-01T07:06:38;101628.97;;;17.73;100.00
48790;BME280;41718;51.980;5.734;2022-08-01T07:11:39;101627.97;;;18.17;100.00
48790;BME280;41718;51.980;5.734;2022-08-01T07:16:41;101629.75;;;18.08;100.00
48790;BME280;41718;51.980;5.734;2022-08-01T07:21:43;101625.38;;;18.08;100.00
48790;BME280;41718;51.980;5.734;2022-08-01T07:26:50;101634.06;;;18.27;100.00
48790;BME280;41718;51.980;5.734;2022-08-01T07:31:56;101629.69;;;18.24;100.00
48790;BME280;41718;51.980;5.734;2022-08-01T07:36:58;101647.13;;;18.25;100.00
48790;BME280;41718;51.980;5.734;2022-08-01T07:41:59;101641.00;;;18.30;100.00
48790;BME280;41718;51.980;5.734;2022-08-01T07:47:08;101652.28;;;18.47;100.00
48790;BME280;41718;51.980;5.734;2022-08-01T07:52:10;101648.78;;;18.52;100.00
48790;BME280;41718;51.980;5.734;2022-08-01T07:57:11;101666.13;;;18.79;100.00
48790;BME280;41718;51.980;5.734;2022-08-01T08:02:13;101667.94;;;18.59;100.00
48790;BME280;41718;51.980;5.734;2022-08-01T08:07:15;101667.09;;;18.59;100.00
48790;BME280;41718;51.980;5.734;2022-08-01T08:12:17;101674.94;;;18.63;100.00
48790;BME280;41718;51.980;5.734;2022-08-01T08:17:28;101671.50;;;18.55;100.00
48790;BME280;41718;51.980;5.734;2022-08-01T08:22:36;101682.69;;;18.88;100.00
48790;BME280;41718;51.980;5.734;2022-08-01T08:27:38;101681.91;;;18.66;100.00
48790;BME280;41718;51.980;5.734;2022-08-01T08:32:41;101683.59;;;18.84;100.00
48790;BME280;41718;51.980;5.734;2022-08-01T08:37:43;101685.38;;;18.78;100.00
48790;BME280;41718;51.980;5.734;2022-08-01T08:42:50;101682.75;;;18.80;100.00
48790;BME280;41718;51.980;5.734;2022-08-01T08:47:53;101689.78;;;18.70;100.00
48790;BME280;41718;51.980;5.734;2022-08-01T08:52:56;101706.38;;;18.69;100.00
48790;BME280;41718;51.980;5.734;2022-08-01T08:58:00;101715.19;;;18.47;100.00
48790;BME280;41718;51.980;5.734;2022-08-01T09:03:07;101712.66;;;18.22;100.00
48790;BME280;41718;51.980;5.734;2022-08-01T09:08:10;101725.66;;;18.50;100.00
48790;BME280;41718;51.980;5.734;2022-08-01T09:13:14;101720.50;;;18.19;100.00
48790;BME280;41718;51.980;5.734;2022-08-01T09:18:35;101722.28;;;18.07;100.00
48790;BME280;41718;51.980;5.734;2022-08-01T09:23:49;101736.28;;;18.01;100.00
48790;BME280;41718;51.980;5.734;2022-08-01T09:28:54;101738.88;;;17.57;100.00
48790;BME280;41718;51.980;5.734;2022-08-01T09:33:58;101751.97;;;17.49;100.00
48790;BME280;41718;51.980;5.734;2022-08-01T09:39:05;101745.88;;;17.81;100.00
48790;BME280;41718;51.980;5.734;2022-08-01T09:44:13;101747.63;;;17.86;100.00
48790;BME280;41718;51.980;5.734;2022-08-01T09:49:27;101745.88;;;18.00;100.00
48790;BME280;41718;51.980;5.734;2022-08-01T09:54:58;101765.91;;;18.14;100.00
48790;BME280;41718;51.980;5.734;2022-08-01T10:00:02;101764.09;;;18.57;100.00
48790;BME280;41718;51.980;5.734;2022-08-01T10:05:09;101771.97;;;18.48;100.00
48790;BME280;41718;51.980;5.734;2022-08-01T10:10:19;101762.38;;;18.36;100.00
48790;BME280;41718;51.980;5.734;2022-08-01T10:15:29;101771.03;;;18.60;100.00
48790;BME280;41718;51.980;5.734;2022-08-01T10:20:38;101752.69;;;18.64;100.00
48790;BME280;41718;51.980;5.734;2022-08-01T10:25:41;101757.00;;;18.82;100.00
48790;BME280;41718;51.980;5.734;2022-08-01T10:30:47;101756.97;;;18.91;100.00
48790;BME280;41718;51.980;5.734;2022-08-01T10:35:50;101752.63;;;18.83;100.00
48790;BME280;41718;51.980;5.734;2022-08-01T10:40:53;101755.19;;;19.01;100.00
48790;BME280;41718;51.980;5.734;2022-08-01T10:45:56;101750.75;;;19.11;100.00
48790;BME280;41718;51.980;5.734;2022-08-01T10:51:01;101760.25;;;19.30;100.00
48790;BME280;41718;51.980;5.734;2022-08-01T10:56:06;101752.19;;;19.57;100.00
48790;BME280;41718;51.980;5.734;2022-08-01T11:01:21;101734.50;;;19.85;100.00
48790;BME280;41718;51.980;5.734;2022-08-01T11:12:10;101728.44;;;20.59;100.00
48790;BME280;41718;51.980;5.734;2022-08-01T11:17:38;101735.00;;;20.21;100.00
48790;BME280;41718;51.980;5.734;2022-08-01T11:33:55;101752.59;;;20.11;100.00
48790;BME280;41718;51.980;5.734;2022-08-01T11:44:22;101758.50;;;20.33;100.00
48790;BME280;41718;51.980;5.734;2022-08-01T11:59:52;101737.06;;;20.72;100.00
48790;BME280;41718;51.980;5.734;2022-08-01T12:05:07;101738.34;;;20.34;100.00
48790;BME280;41718;51.980;5.734;2022-08-01T12:10:14;101731.53;;;20.91;100.00
48790;BME280;41718;51.980;5.734;2022-08-01T12:15:19;101739.34;;;20.98;100.00
48790;BME280;41718;51.980;5.734;2022-08-01T12:20:22;101737.31;;;21.18;100.00
48790;BME280;41718;51.980;5.734;2022-08-01T12:25:24;101730.97;;;21.31;100.00
48790;BME280;41718;51.980;5.734;2022-08-01T12:30:26;101735.78;;;21.02;100.00
48790;BME280;41718;51.980;5.734;2022-08-01T12:35:29;101739.72;;;21.35;100.00
48790;BME280;41718;51.980;5.734;2022-08-01T12:40:35;101732.00;;;21.20;100.00
48790;BME280;41718;51.980;5.734;2022-08-01T12:45:48;101723.97;;;21.29;100.00
48790;BME280;41718;51.980;5.734;2022-08-01T12:50:57;101727.44;;;21.34;100.00
48790;BME280;41718;51.980;5.734;2022-08-01T12:56:02;101725.06;;;21.73;100.00
48790;BME280;41718;51.980;5.734;2022-08-01T13:01:13;101714.31;;;21.85;100.00
48790;BME280;41718;51.980;5.734;2022-08-01T13:06:15;101706.41;;;21.83;100.00
48790;BME280;41718;51.980;5.734;2022-08-01T13:11:18;101711.78;;;21.79;100.00
48790;BME280;41718;51.980;5.734;2022-08-01T13:16:25;101707.38;;;22.27;100.00
48790;BME280;41718;51.980;5.734;2022-08-01T13:21:55;101701.22;;;22.27;100.00
48790;BME280;41718;51.980;5.734;2022-08-01T13:27:01;101705.34;;;22.41;100.00
48790;BME280;41718;51.980;5.734;2022-08-01T13:32:16;101701.50;;;22.13;100.00
48790;BME280;41718;51.980;5.734;2022-08-01T13:37:30;101700.56;;;22.59;100.00
48790;BME280;41718;51.980;5.734;2022-08-01T13:42:33;101691.09;;;22.90;100.00
48790;BME280;41718;51.980;5.734;2022-08-01T13:47:34;101686.97;;;22.77;100.00
48790;BME280;41718;51.980;5.734;2022-08-01T13:52:36;101686.09;;;23.17;100.00
48790;BME280;41718;51.980;5.734;2022-08-01T13:57:40;101676.28;;;22.83;100.00
48790;BME280;41718;51.980;5.734;2022-08-01T14:02:42;101680.97;;;22.69;100.00
48790;BME280;41718;51.980;5.734;2022-08-01T14:07:45;101678.28;;;22.72;100.00
48790;BME280;41718;51.980;5.734;2022-08-01T14:12:49;101671.97;;;22.39;100.00
48790;BME280;41718;51.980;5.734;2022-08-01T14:18:01;101670.69;;;22.58;100.00
48790;BME280;41718;51.980;5.734;2022-08-01T14:23:06;101658.38;;;22.59;100.00
48790;BME280;41718;51.980;5.734;2022-08-01T14:28:09;101665.16;;;22.70;100.00
48790;BME280;41718;51.980;5.734;2022-08-01T14:33:12;101660.19;;;22.95;100.00
48790;BME280;41718;51.980;5.734;2022-08-01T14:38:14;101654.75;;;22.63;98.16
48790;BME280;41718;51.980;5.734;2022-08-01T14:43:32;101654.50;;;22.33;100.00
48790;BME280;41718;51.980;5.734;2022-08-01T14:48:38;101653.34;;;22.85;97.55
48790;BME280;41718;51.980;5.734;2022-08-01T14:53:41;101649.13;;;22.78;94.30
48790;BME280;41718;51.980;5.734;2022-08-01T14:58:53;101649.19;;;22.36;98.24
48790;BME280;41718;51.980;5.734;2022-08-01T15:03:55;101648.53;;;22.25;90.81
48790;BME280;41718;51.980;5.734;2022-08-01T15:08:57;101650.47;;;22.59;89.88
48790;BME280;41718;51.980;5.734;2022-08-01T15:13:58;101643.22;;;22.27;90.03
48790;BME280;41718;51.980;5.734;2022-08-01T15:19:20;101650.53;;;22.14;91.08
48790;BME280;41718;51.980;5.734;2022-08-01T15:24:23;101646.34;;;22.01;93.52
48790;BME280;41718;51.980;5.734;2022-08-01T15:29:25;101640.88;;;22.13;86.56
48790;BME280;41718;51.980;5.734;2022-08-01T15:34:27;101657.50;;;22.16;97.65
48790;BME280;41718;51.980;5.734;2022-08-01T15:39:30;101650.75;;;22.00;91.72
48790;BME280;41718;51.980;5.734;2022-08-01T15:44:33;101660.25;;;22.09;93.95
48790;BME280;41718;51.980;5.734;2022-08-01T15:49:35;101667.78;;;21.82;94.58
48790;BME280;41718;51.980;5.734;2022-08-01T15:54:38;101674.66;;;21.89;93.40
48790;BME280;41718;51.980;5.734;2022-08-01T15:59:44;101672.63;;;22.05;88.35
48790;BME280;41718;51.980;5.734;2022-08-01T16:04:46;101673.72;;;21.93;96.00
48790;BME280;41718;51.980;5.734;2022-08-01T16:09:51;101666.63;;;21.97;91.70
48790;BME280;41718;51.980;5.734;2022-08-01T16:14:53;101667.94;;;22.21;91.26
48790;BME280;41718;51.980;5.734;2022-08-01T16:19:54;101673.53;;;22.04;88.05
48790;BME280;41718;51.980;5.734;2022-08-01T16:25:03;101681.44;;;21.56;90.36
48790;BME280;41718;51.980;5.734;2022-08-01T16:30:05;101683.19;;;22.04;88.43
48790;BME280;41718;51.980;5.734;2022-08-01T16:35:07;101666.03;;;21.81;88.51
48790;BME280;41718;51.980;5.734;2022-08-01T16:40:10;101669.97;;;22.07;86.53
48790;BME280;41718;51.980;5.734;2022-08-01T16:45:14;101665.97;;;21.86;83.27
48790;BME280;41718;51.980;5.734;2022-08-01T16:50:20;101677.25;;;21.92;86.14
48790;BME280;41718;51.980;5.734;2022-08-01T16:55:29;101678.09;;;21.47;85.84
48790;BME280;41718;51.980;5.734;2022-08-01T17:00:51;101664.66;;;21.62;78.62
48790;BME280;41718;51.980;5.734;2022-08-01T17:05:58;101663.22;;;21.92;75.84
48790;BME280;41718;51.980;5.734;2022-08-01T17:11:03;101667.94;;;21.22;74.73
48790;BME280;41718;51.980;5.734;2022-08-01T17:16:06;101673.47;;;21.59;70.94
48790;BME280;41718;51.980;5.734;2022-08-01T17:21:10;101680.34;;;22.59;72.89
48790;BME280;41718;51.980;5.734;2022-08-01T17:26:12;101685.72;;;22.55;68.58
48790;BME280;41718;51.980;5.734;2022-08-01T17:31:14;101682.84;;;22.65;72.26
48790;BME280;41718;51.980;5.734;2022-08-01T17:36:16;101676.13;;;22.06;63.62
48790;BME280;41718;51.980;5.734;2022-08-01T17:41:19;101678.00;;;22.44;68.66
48790;BME280;41718;51.980;5.734;2022-08-01T17:46:20;101684.06;;;22.04;68.80
48790;BME280;41718;51.980;5.734;2022-08-01T17:51:22;101681.47;;;22.03;73.66
48790;BME280;41718;51.980;5.734;2022-08-01T17:56:26;101685.16;;;22.79;76.65
48790;BME280;41718;51.980;5.734;2022-08-01T18:01:28;101694.47;;;22.12;84.00
48790;BME280;41718;51.980;5.734;2022-08-01T18:06:32;101684.75;;;22.15;82.24
48790;BME280;41718;51.980;5.734;2022-08-01T18:11:36;101691.75;;;21.68;82.78
48790;BME280;41718;51.980;5.734;2022-08-01T18:16:38;101700.72;;;21.58;89.57
48790;BME280;41718;51.980;5.734;2022-08-01T18:21:48;101698.38;;;21.40;85.81
48790;BME280;41718;51.980;5.734;2022-08-01T18:26:51;101707.03;;;20.86;96.70
48790;BME280;41718;51.980;5.734;2022-08-01T18:31:55;101704.06;;;20.45;93.94
48790;BME280;41718;51.980;5.734;2022-08-01T18:37:02;101712.03;;;20.37;100.00
48790;BME280;41718;51.980;5.734;2022-08-01T18:42:07;101721.00;;;20.18;100.00
48790;BME280;41718;51.980;5.734;2022-08-01T18:47:09;101723.97;;;19.84;100.00
48790;BME280;41718;51.980;5.734;2022-08-01T18:52:12;101715.41;;;19.65;100.00
48790;BME280;41718;51.980;5.734;2022-08-01T18:57:14;101719.97;;;19.40;100.00
48790;BME280;41718;51.980;5.734;2022-08-01T19:02:22;101727.91;;;19.29;100.00
48790;BME280;41718;51.980;5.734;2022-08-01T19:38:46;101759.81;;;17.54;100.00
48790;BME280;41718;51.980;5.734;2022-08-01T19:43:50;101769.38;;;17.36;100.00
48790;BME280;41718;51.980;5.734;2022-08-01T19:48:52;101780.66;;;17.12;100.00
48790;BME280;41718;51.980;5.734;2022-08-01T19:53:57;101783.84;;;16.53;100.00
48790;BME280;41718;51.980;5.734;2022-08-01T19:59:03;101782.06;;;16.41;100.00
48790;BME280;41718;51.980;5.734;2022-08-01T20:04:09;101783.63;;;16.16;100.00
48790;BME280;41718;51.980;5.734;2022-08-01T20:09:12;101786.09;;;15.98;100.00
48790;BME280;41718;51.980;5.734;2022-08-01T20:14:17;101797.31;;;15.85;100.00
48790;BME280;41718;51.980;5.734;2022-08-01T20:19:24;101796.09;;;15.52;100.00
48790;BME280;41718;51.980;5.734;2022-08-01T20:24:28;101794.19;;;15.36;100.00
48790;BME280;41718;51.980;5.734;2022-08-01T20:29:33;101788.78;;;15.16;100.00
48790;BME280;41718;51.980;5.734;2022-08-01T20:34:36;101801.44;;;14.85;100.00
48790;BME280;41718;51.980;5.734;2022-08-01T20:39:41;101794.47;;;14.83;100.00
48790;BME280;41718;51.980;5.734;2022-08-01T20:44:46;101792.56;;;14.70;100.00
48790;BME280;41718;51.980;5.734;2022-08-01T20:49:50;101795.84;;;14.56;100.00
48790;BME280;41718;51.980;5.734;2022-08-01T20:54:54;101801.69;;;14.43;100.00
48790;BME280;41718;51.980;5.734;2022-08-01T21:00:00;101808.06;;;14.06;100.00
48790;BME280;41718;51.980;5.734;2022-08-01T21:05:06;101812.31;;;14.01;100.00
48790;BME280;41718;51.980;5.734;2022-08-01T21:10:15;101818.16;;;13.88;100.00
48790;BME280;41718;51.980;5.734;2022-08-01T21:15:25;101813.06;;;13.92;100.00
48790;BME280;41718;51.980;5.734;2022-08-01T21:20:30;101806.50;;;13.64;100.00
48790;BME280;41718;51.980;5.734;2022-08-01T21:25:34;101814.22;;;13.60;100.00
48790;BME280;41718;51.980;5.734;2022-08-01T21:30:37;101812.16;;;13.42;100.00
48790;BME280;41718;51.980;5.734;2022-08-01T21:35:41;101816.38;;;13.37;100.00
48790;BME280;41718;51.980;5.734;2022-08-01T21:40:44;101835.81;;;13.13;100.00
48790;BME280;41718;51.980;5.734;2022-08-01T21:45:49;101822.34;;;12.90;100.00
48790;BME280;41718;51.980;5.734;2022-08-01T21:51:03;101833.34;;;12.77;100.00
48790;BME280;41718;51.980;5.734;2022-08-01T21:56:10;101834.06;;;12.71;100.00
48790;BME280;41718;51.980;5.734;2022-08-01T22:01:31;101823.59;;;12.67;100.00
48790;BME280;41718;51.980;5.734;2022-08-01T22:06:53;101820.03;;;12.63;100.00
48790;BME280;41718;51.980;5.734;2022-08-01T22:11:56;101820.91;;;12.64;100.00
48790;BME280;41718;51.980;5.734;2022-08-01T22:17:02;101831.25;;;12.61;100.00
48790;BME280;41718;51.980;5.734;2022-08-01T22:22:03;101820.25;;;12.35;100.00
48790;BME280;41718;51.980;5.734;2022-08-01T22:27:27;101827.09;;;12.31;100.00
48790;BME280;41718;51.980;5.734;2022-08-01T22:32:50;101822.44;;;11.83;100.00
48790;BME280;41718;51.980;5.734;2022-08-01T22:38:12;101817.38;;;11.86;100.00
48790;BME280;41718;51.980;5.734;2022-08-01T22:43:43;101826.59;;;11.78;100.00
48790;BME280;41718;51.980;5.734;2022-08-01T22:48:51;101815.97;;;11.67;100.00
48790;BME280;41718;51.980;5.734;2022-08-01T22:54:03;101809.31;;;11.77;100.00
48790;BME280;41718;51.980;5.734;2022-08-01T22:59:30;101796.19;;;11.71;100.00
48790;BME280;41718;51.980;5.734;2022-08-01T23:04:53;101805.41;;;11.60;100.00
48790;BME280;41718;51.980;5.734;2022-08-01T23:09:58;101808.59;;;11.50;100.00
48790;BME280;41718;51.980;5.734;2022-08-01T23:15:00;101804.75;;;11.35;100.00
48790;BME280;41718;51.980;5.734;2022-08-01T23:20:05;101807.53;;;11.43;100.00
48790;BME280;41718;51.980;5.734;2022-08-01T23:25:09;101800.34;;;11.33;100.00
48790;BME280;41718;51.980;5.734;2022-08-01T23:30:12;101792.63;;;11.34;100.00
48790;BME280;41718;51.980;5.734;2022-08-01T23:35:14;101793.75;;;11.44;100.00
48790;BME280;41718;51.980;5.734;2022-08-01T23:40:16;101792.03;;;11.45;100.00
48790;BME280;41718;51.980;5.734;2022-08-01T23:45:19;101784.06;;;11.37;100.00
48790;BME280;41718;51.980;5.734;2022-08-01T23:50:21;101790.81;;;11.30;100.00
48790;BME280;41718;51.980;5.734;2022-08-01T23:55:24;101782.09;;;11.28;100.00
